PortugalFixed distance
Ultra Trail do Marão UTM 60k
23 Mar2024
Distance
60km
Finishers
118104 men14 women
Winning time
7:25:50h
Median pace
5.23km/h
Pace distribution
118 finishers · 3.65–8.07 km/h · mean 5.38
Every finisher ran the same 60 km course, so these paces are directly comparable.
Histogram of finisher pace. 118 finishers ranged from 3.65 to 8.07 kilometres per hour, with a mean of 5.38 and a median of 5.23. The busiest band is 4.5 to 5.0 kilometres per hour, with 26 finishers.
Results
Ranks 101–118 of 118
| Rank | Runner | Time | Pace | Cat. | Placing |
|---|---|---|---|---|---|
| 101 | 13:49:31h | 4.34 | M35 | 89th M · 10th M35 | |
| 102 | 13:51:43h | 4.33 | M55 | 90th M · 6th M55 | |
| 103 | 13:57:47h | 4.30 | M50 | 91st M · 9th M50 | |
| 104 | 14:10:55h | 4.23 | M50 | 92nd M · 10th M50 | |
| 105 | 14:16:42h | 4.20 | M40 | 93rd M · 32nd M40 | |
| 106 | 14:19:55h | 4.19 | M45 | 94th M · 22nd M45 | |
| 107 | 14:54:51h | 4.02 | M50 | 95th M · 11th M50 | |
| 107 | 14:54:51h | 4.02 | M40 | 95th M · 33rd M40 | |
| 107 | 14:54:51h | 4.02 | M40 | 95th M · 33rd M40 | |
| 110 | 15:21:36h | 3.91 | M40 | 98th M · 35th M40 | |
| 111 | 15:24:13h | 3.90 | M23 | 99th M · 14th M23 | |
| 112 | 15:27:20h | 3.88 | M50 | 100th M · 12th M50 | |
| 113 | 15:32:30h | 3.86 | M35 | 101st M · 11th M35 | |
| 114 | 15:35:21h | 3.85 | W45 | 13th F · 2nd W45 | |
| 115 | 15:39:46h | 3.83 | W50 | 14th F · 2nd W50 | |
| 116 | 16:27:15h | 3.65 | M45 | 102nd M · 23rd M45 | |
| 117 | 16:27:16h | 3.65 | M45 | 103rd M · 24th M45 | |
| 118 | 16:27:17h | 3.65 | M65 | 104th M · 2nd M65 |
- 10189th M · 10th M35Time13:49:31hPace4.34Cat.M35
- 10290th M · 6th M55Time13:51:43hPace4.33Cat.M55
- 10391st M · 9th M50Time13:57:47hPace4.30Cat.M50
- 10492nd M · 10th M50Time14:10:55hPace4.23Cat.M50
- 10593rd M · 32nd M40Time14:16:42hPace4.20Cat.M40
- 10694th M · 22nd M45Time14:19:55hPace4.19Cat.M45
- 10795th M · 11th M50Time14:54:51hPace4.02Cat.M50
- 10795th M · 33rd M40Time14:54:51hPace4.02Cat.M40
- 10795th M · 33rd M40Time14:54:51hPace4.02Cat.M40
- 11098th M · 35th M40Time15:21:36hPace3.91Cat.M40
- 11199th M · 14th M23Time15:24:13hPace3.90Cat.M23
- 112100th M · 12th M50Time15:27:20hPace3.88Cat.M50
- 113101st M · 11th M35Time15:32:30hPace3.86Cat.M35
- 11413th F · 2nd W45Time15:35:21hPace3.85Cat.W45
- 11514th F · 2nd W50Time15:39:46hPace3.83Cat.W50
- 116102nd M · 23rd M45Time16:27:15hPace3.65Cat.M45
- 117103rd M · 24th M45Time16:27:16hPace3.65Cat.M45
- 118104th M · 2nd M65Time16:27:17hPace3.65Cat.M65
Showing ranks 101–118 of 118